createdAt,value
2023-01-11T00:02:03.150Z,3.40
2023-01-11T00:04:30.814Z,3.38
2023-01-11T00:06:58.391Z,3.34
2023-01-11T00:09:25.492Z,3.35
2023-01-11T00:11:52.529Z,3.34
2023-01-11T00:14:19.561Z,3.31
2023-01-11T00:16:46.570Z,3.31
2023-01-11T00:19:13.833Z,3.34
2023-01-11T00:21:40.761Z,3.34
2023-01-11T00:24:07.815Z,3.32
2023-01-11T00:26:34.762Z,3.28
2023-01-11T00:29:01.793Z,3.20
2023-01-11T00:31:28.849Z,3.16
2023-01-11T00:33:56.152Z,3.12
2023-01-11T00:36:23.181Z,3.03
2023-01-11T00:38:54.490Z,2.98
2023-01-11T00:41:41.578Z,2.94
2023-01-11T00:44:29.690Z,2.87
2023-01-11T00:47:15.701Z,2.84
2023-01-11T00:49:43.466Z,2.74
2023-01-11T00:52:10.905Z,2.71
2023-01-11T00:54:39.581Z,2.70
2023-01-11T00:57:07.701Z,2.65
2023-01-11T00:59:34.980Z,2.64
2023-01-11T01:02:02.175Z,2.60
2023-01-11T01:04:29.155Z,2.60
2023-01-11T01:06:56.181Z,2.59
2023-01-11T01:09:23.195Z,2.60
2023-01-11T01:11:50.251Z,2.54
2023-01-11T01:14:26.364Z,2.56
2023-01-11T01:16:53.988Z,2.52
2023-01-11T01:19:22.605Z,2.51
2023-01-11T01:21:50.792Z,2.52
2023-01-11T01:24:17.750Z,2.50
2023-01-11T01:26:44.820Z,2.48
2023-01-11T01:29:12.221Z,2.48
2023-01-11T01:31:39.311Z,2.44
2023-01-11T01:34:06.828Z,2.48
2023-01-11T01:36:33.764Z,2.50
2023-01-11T01:39:01.584Z,2.51
2023-01-11T01:41:28.658Z,2.52
2023-01-11T01:44:01.211Z,2.54
2023-01-11T01:46:33.685Z,2.57
2023-01-11T01:49:03.264Z,2.58
2023-01-11T01:51:54.601Z,2.56
2023-01-11T01:54:30.881Z,2.57
2023-01-11T01:57:02.374Z,2.48
2023-01-11T01:59:32.314Z,2.42
2023-01-11T02:02:00.637Z,2.39
2023-01-11T02:04:38.471Z,2.32
2023-01-11T02:07:16.512Z,2.27
2023-01-11T02:09:55.978Z,2.22
2023-01-11T02:12:27.734Z,2.17
2023-01-11T02:14:56.251Z,2.12
2023-01-11T02:17:24.910Z,2.09
2023-01-11T02:19:55.137Z,2.06
2023-01-11T02:22:43.201Z,2.05
2023-01-11T02:25:47.816Z,2.05
2023-01-11T02:28:24.274Z,1.99
2023-01-11T02:31:06.822Z,1.93
2023-01-11T02:33:57.592Z,1.90
2023-01-11T02:36:33.816Z,1.89
2023-01-11T02:39:17.055Z,1.85
2023-01-11T02:42:19.331Z,1.85
2023-01-11T02:45:02.201Z,1.82
2023-01-11T02:47:46.193Z,1.80
2023-01-11T02:50:30.171Z,1.82
2023-01-11T02:53:23.950Z,1.76
2023-01-11T02:55:56.651Z,1.77
2023-01-11T02:58:27.280Z,1.74
2023-01-11T03:00:56.151Z,1.72
2023-01-11T03:03:30.990Z,1.68
2023-01-11T03:06:07.129Z,1.68
2023-01-11T03:08:46.020Z,1.72
2023-01-11T03:11:41.953Z,1.77
2023-01-11T03:14:26.671Z,1.66
2023-01-11T03:17:12.831Z,1.64
2023-01-11T03:19:54.990Z,1.57
2023-01-11T03:22:56.591Z,1.59
2023-01-11T03:25:33.771Z,1.51
2023-01-11T03:28:37.634Z,1.58
2023-01-11T03:31:18.523Z,1.47
2023-01-11T03:34:17.374Z,1.53
2023-01-11T03:37:01.409Z,1.60
2023-01-11T03:39:36.254Z,1.66
2023-01-11T03:42:08.340Z,1.68
2023-01-11T03:44:42.753Z,1.70
2023-01-11T03:47:13.290Z,1.78
2023-01-11T03:49:54.731Z,1.78
2023-01-11T03:52:27.807Z,1.76
2023-01-11T03:54:56.792Z,1.67
2023-01-11T03:57:29.640Z,1.78
2023-01-11T03:59:56.792Z,1.73
2023-01-11T04:02:33.671Z,1.73
2023-01-11T04:05:00.856Z,1.76
2023-01-11T04:07:27.952Z,1.74
2023-01-11T04:09:55.033Z,1.66
2023-01-11T04:12:22.121Z,1.70
2023-01-11T04:14:49.074Z,1.67
2023-01-11T04:17:16.130Z,1.64
2023-01-11T04:19:43.438Z,1.63
2023-01-11T04:22:10.420Z,1.63
2023-01-11T04:24:37.513Z,1.66
2023-01-11T04:27:04.509Z,1.66
2023-01-11T04:29:31.571Z,1.70
2023-01-11T04:32:00.116Z,1.71
2023-01-11T04:34:28.391Z,1.73
2023-01-11T04:36:55.373Z,1.71
2023-01-11T04:39:22.572Z,1.73
2023-01-11T04:42:08.312Z,1.71
2023-01-11T04:44:35.393Z,1.69
2023-01-11T04:47:02.355Z,1.68
2023-01-11T04:49:29.291Z,1.73
2023-01-11T04:51:56.552Z,1.75
2023-01-11T04:54:23.630Z,1.80
2023-01-11T04:56:50.645Z,1.83
2023-01-11T04:59:17.734Z,1.77
2023-01-11T05:01:44.691Z,1.74
2023-01-11T05:04:13.494Z,1.72
2023-01-11T05:06:40.864Z,1.73
2023-01-11T05:09:13.711Z,1.68
2023-01-11T05:11:41.021Z,1.72
2023-01-11T05:14:08.457Z,1.63
2023-01-11T05:16:35.581Z,1.61
2023-01-11T05:19:04.300Z,1.48
2023-01-11T05:21:34.061Z,1.43
2023-01-11T05:24:04.202Z,1.39
2023-01-11T05:26:34.932Z,1.38
2023-01-11T05:29:05.483Z,1.39
2023-01-11T05:31:33.868Z,1.46
2023-01-11T05:34:01.422Z,1.52
2023-01-11T05:36:29.365Z,1.56
2023-01-11T05:38:57.485Z,1.61
2023-01-11T05:41:26.363Z,1.68
2023-01-11T05:44:13.605Z,1.67
2023-01-11T05:46:43.026Z,1.66
2023-01-11T05:49:11.231Z,1.58
2023-01-11T05:51:41.021Z,1.52
2023-01-11T05:54:11.537Z,1.50
2023-01-11T05:56:38.675Z,1.47
2023-01-11T05:59:05.875Z,1.43
2023-01-11T06:01:33.016Z,1.40
2023-01-11T06:04:00.023Z,1.34
2023-01-11T06:06:27.291Z,1.30
2023-01-11T06:08:54.441Z,1.25
2023-01-11T06:11:21.420Z,1.24
2023-01-11T06:13:48.589Z,1.23
2023-01-11T06:16:18.640Z,1.23
2023-01-11T06:18:48.314Z,1.21
2023-01-11T06:21:16.407Z,1.24
2023-01-11T06:23:46.422Z,1.25
2023-01-11T06:26:15.700Z,1.26
2023-01-11T06:28:42.940Z,1.37
2023-01-11T06:31:10.353Z,1.45
2023-01-11T06:33:37.823Z,1.40
2023-01-11T06:36:07.116Z,1.45
2023-01-11T06:38:34.465Z,1.51
2023-01-11T06:41:03.350Z,1.49
2023-01-11T06:43:31.463Z,1.51
2023-01-11T06:45:59.344Z,1.46
2023-01-11T06:48:27.976Z,1.40
2023-01-11T06:50:57.423Z,1.37
2023-01-11T06:53:28.431Z,1.37
2023-01-11T06:55:58.117Z,1.14
2023-01-11T06:58:26.425Z,1.21
2023-01-11T07:00:56.120Z,1.17
2023-01-11T07:03:24.920Z,1.20
2023-01-11T07:05:53.886Z,1.25
2023-01-11T07:08:20.921Z,1.21
2023-01-11T07:10:48.503Z,1.02
2023-01-11T07:13:17.529Z,1.24
2023-01-11T07:15:46.532Z,1.29
2023-01-11T07:18:13.750Z,1.33
2023-01-11T07:20:41.421Z,1.38
2023-01-11T07:23:09.088Z,1.41
2023-01-11T07:25:36.131Z,1.58
2023-01-11T07:28:07.388Z,1.69
2023-01-11T07:30:51.947Z,1.80
2023-01-11T07:33:23.829Z,1.90
2023-01-11T07:36:01.151Z,2.01
2023-01-11T07:38:30.841Z,2.13
2023-01-11T07:40:58.161Z,2.21
2023-01-11T07:43:25.349Z,2.21
2023-01-11T07:45:53.345Z,2.36
2023-01-11T07:48:28.040Z,2.41
2023-01-11T07:50:55.664Z,2.43
2023-01-11T07:53:26.136Z,2.55
2023-01-11T07:55:55.578Z,2.64
2023-01-11T07:58:22.704Z,2.69
2023-01-11T08:00:49.678Z,2.76
2023-01-11T08:03:16.925Z,2.89
2023-01-11T08:05:58.089Z,3.02
2023-01-11T08:08:26.442Z,3.12
2023-01-11T08:11:12.298Z,3.29
2023-01-11T08:13:57.960Z,3.42
2023-01-11T08:16:27.526Z,3.51
2023-01-11T08:18:54.583Z,3.57
2023-01-11T08:21:21.720Z,3.62
2023-01-11T08:23:48.810Z,3.60
2023-01-11T08:26:18.235Z,3.66
2023-01-11T08:28:45.805Z,3.70
2023-01-11T08:31:12.896Z,3.74
2023-01-11T08:33:39.948Z,3.83
2023-01-11T08:36:09.166Z,3.89
2023-01-11T08:38:36.322Z,3.98
2023-01-11T08:41:10.952Z,4.06
2023-01-11T08:43:38.722Z,4.08
2023-01-11T08:46:06.074Z,4.04
2023-01-11T08:48:33.443Z,4.03
2023-01-11T08:51:00.610Z,4.02
2023-01-11T08:53:28.021Z,4.06
2023-01-11T08:55:55.121Z,4.15
2023-01-11T08:58:22.226Z,4.23
2023-01-11T09:00:49.182Z,4.34
2023-01-11T09:03:16.265Z,4.46
2023-01-11T09:05:43.267Z,4.57
2023-01-11T09:08:11.741Z,4.60
2023-01-11T09:10:38.842Z,4.72
2023-01-11T09:13:05.853Z,4.87
2023-01-11T09:15:32.822Z,4.92
2023-01-11T09:17:59.884Z,5.04
2023-01-11T09:20:26.977Z,5.11
2023-01-11T09:22:54.084Z,5.11
2023-01-11T09:25:21.348Z,5.11
2023-01-11T09:27:52.135Z,5.21
2023-01-11T09:30:24.103Z,5.30
2023-01-11T09:32:52.298Z,5.44
2023-01-11T09:35:19.941Z,5.47
2023-01-11T09:37:52.520Z,5.53
2023-01-11T09:40:24.017Z,5.66
2023-01-11T09:43:00.140Z,5.74
2023-01-11T09:45:30.669Z,5.78
2023-01-11T09:48:26.867Z,5.90
2023-01-11T09:50:53.956Z,6.00
2023-01-11T09:53:37.827Z,6.11
2023-01-11T09:56:12.184Z,6.22
2023-01-11T09:59:00.245Z,6.35
2023-01-11T10:01:38.046Z,6.45
2023-01-11T10:04:37.043Z,6.58
2023-01-11T10:07:24.785Z,6.68
2023-01-11T10:18:35.341Z,7.04
2023-01-11T10:19:35.000Z,7.12
2023-01-11T10:22:31.960Z,7.10
2023-01-11T10:25:23.870Z,7.12
2023-01-11T10:27:57.922Z,7.14
2023-01-11T10:30:41.668Z,7.25
2023-01-11T10:33:37.920Z,7.31
2023-01-11T10:36:54.284Z,7.36
2023-01-11T10:40:02.086Z,7.39
2023-01-11T10:42:31.397Z,7.38
2023-01-11T10:45:05.828Z,7.37
2023-01-11T10:48:01.640Z,7.37
2023-01-11T10:50:38.968Z,7.36
2023-01-11T10:53:22.494Z,7.30
2023-01-11T10:55:57.865Z,7.33
2023-01-11T10:59:01.332Z,7.39
2023-01-11T11:01:38.884Z,7.44
2023-01-11T11:04:39.608Z,7.46
2023-01-11T11:07:34.901Z,7.54
2023-01-11T11:10:13.415Z,7.68
2023-01-11T11:12:54.907Z,7.77
2023-01-11T11:15:37.788Z,7.85
2023-01-11T11:18:05.307Z,8.05
2023-01-11T11:20:34.463Z,8.19
2023-01-11T11:23:02.121Z,8.37
2023-01-11T11:25:37.552Z,8.54
2023-01-11T11:28:22.999Z,8.67
2023-01-11T11:30:54.104Z,8.83
2023-01-11T11:33:23.021Z,9.00
2023-01-11T11:36:01.561Z,8.98
2023-01-11T11:38:35.609Z,9.05
2023-01-11T11:41:08.644Z,9.09
2023-01-11T11:43:41.069Z,9.07
2023-01-11T11:46:18.950Z,9.06
2023-01-11T11:49:06.041Z,9.01
2023-01-11T11:51:33.146Z,8.96
2023-01-11T11:54:01.119Z,8.83
2023-01-11T11:56:30.320Z,8.85
2023-01-11T11:58:58.814Z,8.91
2023-01-11T12:13:29.201Z,8.11
2023-01-11T12:16:01.765Z,8.10
2023-01-11T12:18:29.008Z,8.10
2023-01-11T12:20:56.163Z,8.17
2023-01-11T12:23:25.257Z,8.30
2023-01-11T12:26:02.264Z,8.41
2023-01-11T12:28:46.976Z,8.55
2023-01-11T12:31:47.900Z,8.60
2023-01-11T12:34:33.623Z,8.72
2023-01-11T12:37:12.721Z,8.68
2023-01-11T12:39:45.622Z,8.79
2023-01-11T12:42:35.960Z,8.76
2023-01-11T12:45:28.197Z,8.84
2023-01-11T12:48:15.483Z,8.89
2023-01-11T12:51:20.665Z,8.88
2023-01-11T12:54:03.337Z,8.85
2023-01-11T12:56:39.727Z,8.80
2023-01-11T12:59:35.464Z,8.86
2023-01-11T13:02:14.887Z,8.82
2023-01-11T13:05:17.268Z,8.81
2023-01-11T13:07:59.419Z,8.78
2023-01-11T13:10:55.082Z,8.79
2023-01-11T13:13:29.761Z,8.76
2023-01-11T13:16:06.048Z,8.77
2023-01-11T13:18:59.388Z,8.71
2023-01-11T13:21:35.865Z,8.69
2023-01-11T13:24:10.851Z,8.68
2023-01-11T13:26:42.142Z,8.64
2023-01-11T13:29:31.264Z,8.67
2023-01-11T13:32:01.829Z,8.67
2023-01-11T13:34:48.622Z,8.66
2023-01-11T13:37:29.482Z,8.62
2023-01-11T13:40:16.759Z,8.57
2023-01-11T13:42:53.581Z,8.58
2023-01-11T13:45:32.282Z,8.59
2023-01-11T13:48:08.420Z,8.58
2023-01-11T13:50:54.629Z,8.57
2023-01-11T13:53:36.601Z,8.55
2023-01-11T13:56:27.685Z,8.52
2023-01-11T13:59:12.236Z,8.57
2023-01-11T14:01:58.861Z,8.57
2023-01-11T14:04:36.440Z,8.53
2023-01-11T14:07:17.435Z,8.50
2023-01-11T14:09:51.980Z,8.43
2023-01-11T14:12:43.581Z,8.45
2023-01-11T14:15:41.381Z,8.44
2023-01-11T14:19:00.790Z,8.39
2023-01-11T14:21:51.223Z,8.36
2023-01-11T14:24:19.961Z,8.34
2023-01-11T14:27:12.610Z,8.31
2023-01-11T14:29:59.933Z,8.32
2023-01-11T14:32:57.325Z,8.29
2023-01-11T14:36:00.607Z,8.27
2023-01-11T14:38:33.449Z,8.23
2023-01-11T14:41:23.458Z,8.18
2023-01-11T14:44:18.723Z,8.15
2023-01-11T14:47:10.540Z,8.06
2023-01-11T14:50:05.224Z,8.07
2023-01-11T14:52:40.830Z,8.03
2023-01-11T14:55:27.960Z,7.97
2023-01-11T14:58:19.220Z,7.93
2023-01-11T15:00:46.221Z,7.85
2023-01-11T15:03:13.167Z,7.85
2023-01-11T15:06:01.367Z,7.76
2023-01-11T15:08:41.801Z,7.73
2023-01-11T15:11:25.403Z,7.70
2023-01-11T15:14:20.340Z,7.65
2023-01-11T15:17:10.840Z,7.57
2023-01-11T15:19:41.766Z,7.48
2023-01-11T15:22:26.771Z,7.40
2023-01-11T15:25:20.263Z,7.35
2023-01-11T15:27:48.107Z,7.30
2023-01-11T15:30:30.135Z,7.24
2023-01-11T15:33:19.343Z,7.14
2023-01-11T15:36:08.140Z,7.08
2023-01-11T15:38:49.666Z,7.02
2023-01-11T15:41:45.981Z,6.99
2023-01-11T15:44:28.828Z,6.92
2023-01-11T15:47:11.841Z,6.90
2023-01-11T15:49:56.189Z,6.83
2023-01-11T15:52:52.201Z,6.79
2023-01-11T15:55:38.003Z,6.79
2023-01-11T15:58:26.001Z,6.76
2023-01-11T16:01:07.579Z,6.73
2023-01-11T16:04:02.325Z,6.68
2023-01-11T16:06:48.989Z,6.62
2023-01-11T16:09:47.738Z,6.53
2023-01-11T16:12:42.436Z,6.48
2023-01-11T16:15:30.557Z,6.40
2023-01-11T16:18:14.901Z,6.35
2023-01-11T16:20:46.081Z,6.33
2023-01-11T16:23:20.940Z,6.30
2023-01-11T16:25:56.163Z,6.30
2023-01-11T16:28:23.691Z,6.30
2023-01-11T16:31:05.552Z,6.27
2023-01-11T16:33:34.645Z,6.24
2023-01-11T16:36:13.461Z,6.23
2023-01-11T16:38:50.160Z,6.23
2023-01-11T16:41:17.342Z,6.21
2023-01-11T16:44:09.371Z,6.21
2023-01-11T16:47:13.491Z,6.21
2023-01-11T16:49:43.361Z,6.20
2023-01-11T16:52:28.916Z,6.22
2023-01-11T16:55:02.569Z,6.21
2023-01-11T16:57:36.040Z,6.22
2023-01-11T17:00:08.820Z,6.16
2023-01-11T17:02:39.621Z,6.08
2023-01-11T17:05:21.883Z,6.11
2023-01-11T17:07:49.022Z,6.09
2023-01-11T17:10:42.581Z,6.03
2023-01-11T17:13:53.554Z,5.98
2023-01-11T17:16:29.350Z,5.91
2023-01-11T17:19:00.541Z,5.85
2023-01-11T17:21:29.784Z,5.83
2023-01-11T17:24:03.431Z,5.81
2023-01-11T17:26:35.251Z,5.76
2023-01-11T17:29:02.482Z,5.68
2023-01-11T17:31:32.778Z,5.69
2023-01-11T17:34:16.772Z,5.67
2023-01-11T17:36:45.629Z,5.64
2023-01-11T17:39:32.168Z,5.61
2023-01-11T17:42:20.255Z,5.63
2023-01-11T17:45:07.262Z,5.60
2023-01-11T17:47:35.313Z,5.61
2023-01-11T17:50:04.145Z,5.59
2023-01-11T17:52:43.878Z,5.57
2023-01-11T17:55:20.783Z,5.58
2023-01-11T17:58:19.942Z,5.57
2023-01-11T18:01:10.049Z,5.57
2023-01-11T18:03:49.710Z,5.48
2023-01-11T18:06:42.148Z,5.42
2023-01-11T18:09:44.143Z,5.52
2023-01-11T18:12:22.693Z,5.54
2023-01-11T18:15:15.342Z,5.52
2023-01-11T18:17:42.430Z,5.54
2023-01-11T18:20:15.716Z,5.55
2023-01-11T18:22:56.350Z,5.57
2023-01-11T18:25:26.462Z,5.56
2023-01-11T18:28:21.133Z,5.59
2023-01-11T18:30:54.149Z,5.62
2023-01-11T18:33:24.586Z,5.62
2023-01-11T18:36:00.166Z,5.65
2023-01-11T18:38:33.463Z,5.61
2023-01-11T18:41:25.702Z,5.60
2023-01-11T18:43:53.791Z,5.56
2023-01-11T18:46:20.829Z,5.60
2023-01-11T18:48:48.077Z,5.62
2023-01-11T18:51:18.606Z,5.57
2023-01-11T18:53:45.722Z,5.62
2023-01-11T18:56:14.641Z,5.63
2023-01-11T18:58:41.679Z,5.57
2023-01-11T19:01:09.769Z,5.48
2023-01-11T19:03:37.964Z,5.59
2023-01-11T19:06:05.683Z,5.61
2023-01-11T19:08:33.001Z,5.60
2023-01-11T19:11:00.132Z,5.61
2023-01-11T19:13:27.146Z,5.63
2023-01-11T19:15:54.198Z,5.65
2023-01-11T19:18:21.592Z,5.67
2023-01-11T19:20:48.603Z,5.68
2023-01-11T19:23:15.580Z,5.66
2023-01-11T19:25:42.590Z,5.71
2023-01-11T19:28:09.704Z,5.71
2023-01-11T19:30:39.045Z,5.71
2023-01-11T19:33:06.165Z,5.72
2023-01-11T19:35:33.223Z,5.73
2023-01-11T19:38:00.262Z,5.74
2023-01-11T19:40:27.683Z,5.73
2023-01-11T19:42:54.782Z,5.74
2023-01-11T19:45:21.845Z,5.75
2023-01-11T19:47:48.988Z,5.76
2023-01-11T19:50:18.400Z,5.76
2023-01-11T19:52:46.997Z,5.75
2023-01-11T19:55:14.114Z,5.77
2023-01-11T19:57:41.241Z,5.76
2023-01-11T20:00:09.282Z,5.76
2023-01-11T20:02:39.578Z,5.76
2023-01-11T20:05:07.161Z,5.75
2023-01-11T20:07:34.326Z,5.77
2023-01-11T20:10:05.209Z,5.79
2023-01-11T20:12:32.444Z,5.80
2023-01-11T20:15:01.463Z,5.78
2023-01-11T20:17:29.552Z,5.76
2023-01-11T20:19:56.648Z,5.74
2023-01-11T20:22:26.441Z,5.76
2023-01-11T20:24:53.546Z,5.74
2023-01-11T20:27:20.650Z,5.76
2023-01-11T20:29:48.149Z,5.76
2023-01-11T20:32:39.027Z,5.76
2023-01-11T20:35:05.082Z,5.81
2023-01-11T20:37:32.163Z,5.79
2023-01-11T20:39:59.229Z,5.80
2023-01-11T20:42:26.205Z,5.80
2023-01-11T20:44:53.262Z,5.84
2023-01-11T20:47:20.281Z,5.81
2023-01-11T20:49:47.394Z,5.83
2023-01-11T20:52:14.616Z,5.84
2023-01-11T20:54:41.608Z,5.84
2023-01-11T20:57:12.769Z,5.86
2023-01-11T20:59:40.006Z,5.86
2023-01-11T21:02:07.836Z,5.88
2023-01-11T21:04:35.968Z,5.91
2023-01-11T21:07:03.124Z,5.93
2023-01-11T21:09:30.189Z,5.93
2023-01-11T21:11:57.205Z,5.91
2023-01-11T21:14:24.365Z,5.92
2023-01-11T21:16:55.047Z,5.88
2023-01-11T21:19:22.747Z,5.91
2023-01-11T21:21:50.001Z,5.88
2023-01-11T21:24:17.261Z,5.83
2023-01-11T21:26:46.057Z,5.82
2023-01-11T21:29:13.668Z,5.81
2023-01-11T21:31:41.422Z,5.79
2023-01-11T21:34:11.089Z,5.76
2023-01-11T21:36:38.725Z,5.74
2023-01-11T21:39:06.064Z,5.75
2023-01-11T21:41:52.923Z,5.75
2023-01-11T21:44:21.602Z,5.76
2023-01-11T21:46:49.620Z,5.76
2023-01-11T21:49:17.329Z,5.75
2023-01-11T21:51:44.432Z,5.72
2023-01-11T21:54:13.639Z,5.66
2023-01-11T21:56:42.164Z,5.69
2023-01-11T21:59:09.753Z,5.71
2023-01-11T22:01:37.967Z,5.72
2023-01-11T22:04:06.458Z,5.74
2023-01-11T22:06:41.771Z,5.72
2023-01-11T22:09:11.086Z,5.74
2023-01-11T22:11:39.164Z,5.75
2023-01-11T22:14:07.950Z,5.72
2023-01-11T22:16:35.721Z,5.75
2023-01-11T22:19:07.555Z,5.74
2023-01-11T22:21:36.025Z,5.75
2023-01-11T22:24:03.223Z,5.79
2023-01-11T22:26:33.559Z,5.81
2023-01-11T22:29:12.796Z,5.79
2023-01-11T22:31:42.203Z,5.84
2023-01-11T22:34:10.348Z,5.87
2023-01-11T22:36:37.482Z,5.85
2023-01-11T22:39:04.585Z,5.85
2023-01-11T22:41:32.081Z,5.91
2023-01-11T22:43:59.182Z,5.92
2023-01-11T22:46:27.485Z,5.95
2023-01-11T22:48:54.560Z,5.93
2023-01-11T22:51:24.253Z,5.96
2023-01-11T22:53:53.011Z,5.98
2023-01-11T22:56:25.143Z,5.93
2023-01-11T22:58:53.887Z,5.93
2023-01-11T23:01:25.652Z,5.95
2023-01-11T23:03:53.854Z,5.95
2023-01-11T23:06:26.708Z,5.95
2023-01-11T23:08:55.040Z,5.94
2023-01-11T23:11:43.963Z,5.94
2023-01-11T23:14:16.504Z,5.94
2023-01-11T23:16:45.282Z,5.97
2023-01-11T23:19:14.170Z,5.97
2023-01-11T23:21:43.162Z,5.91
2023-01-11T23:24:11.881Z,5.89
2023-01-11T23:26:39.705Z,5.86
2023-01-11T23:29:07.262Z,5.78
2023-01-11T23:31:34.421Z,5.70
2023-01-11T23:34:03.104Z,5.72
2023-01-11T23:36:32.947Z,5.73
2023-01-11T23:39:00.386Z,5.72
2023-01-11T23:41:46.448Z,5.73
2023-01-11T23:44:15.830Z,5.73
2023-01-11T23:47:01.808Z,5.74
2023-01-11T23:49:30.192Z,5.71
2023-01-11T23:51:57.578Z,5.71
2023-01-11T23:54:31.025Z,5.65
2023-01-11T23:56:59.260Z,5.67
2023-01-11T23:59:26.590Z,5.69
